createdAt,value
2022-08-18T00:00:23.482Z,26.75
2022-08-18T00:01:23.482Z,26.67
2022-08-18T00:02:28.794Z,26.69
2022-08-18T00:03:54.019Z,26.69
2022-08-18T00:04:35.399Z,26.72
2022-08-18T00:05:23.522Z,26.75
2022-08-18T00:06:23.503Z,26.75
2022-08-18T00:07:23.523Z,26.66
2022-08-18T00:08:23.533Z,26.67
2022-08-18T00:09:23.552Z,26.70
2022-08-18T00:10:23.549Z,26.66
2022-08-18T00:11:23.565Z,26.63
2022-08-18T00:12:23.569Z,26.70
2022-08-18T00:13:23.578Z,26.52
2022-08-18T00:14:23.591Z,26.65
2022-08-18T00:15:23.730Z,26.62
2022-08-18T00:16:23.599Z,26.57
2022-08-18T00:17:23.615Z,26.54
2022-08-18T00:18:23.610Z,26.62
2022-08-18T00:19:46.866Z,26.54
2022-08-18T00:20:23.625Z,26.54
2022-08-18T00:21:23.649Z,26.52
2022-08-18T00:22:23.644Z,26.57
2022-08-18T00:23:23.645Z,26.57
2022-08-18T00:24:23.649Z,26.54
2022-08-18T00:25:23.691Z,26.55
2022-08-18T00:26:23.668Z,26.54
2022-08-18T00:27:26.134Z,26.48
2022-08-18T00:28:23.805Z,26.47
2022-08-18T00:29:23.687Z,26.51
2022-08-18T00:30:31.280Z,26.39
2022-08-18T00:31:23.684Z,26.39
2022-08-18T00:32:23.720Z,26.40
2022-08-18T00:33:23.712Z,26.40
2022-08-18T00:34:23.710Z,26.35
2022-08-18T00:35:23.750Z,26.30
2022-08-18T00:36:23.719Z,26.33
2022-08-18T00:37:23.743Z,26.30
2022-08-18T00:38:25.297Z,26.25
2022-08-18T00:39:23.742Z,26.23
2022-08-18T00:40:24.005Z,26.25
2022-08-18T00:41:23.768Z,26.26
2022-08-18T00:42:28.172Z,26.25
2022-08-18T00:43:23.780Z,26.23
2022-08-18T00:44:23.794Z,26.13
2022-08-18T00:45:23.895Z,26.25
2022-08-18T00:46:23.792Z,26.12
2022-08-18T00:47:36.448Z,26.09
2022-08-18T00:48:24.065Z,26.13
2022-08-18T00:49:23.813Z,26.18
2022-08-18T00:50:23.837Z,26.13
2022-08-18T00:51:23.867Z,26.13
2022-08-18T00:52:23.839Z,26.12
2022-08-18T00:53:23.859Z,26.17
2022-08-18T00:54:23.849Z,26.10
2022-08-18T00:55:23.892Z,26.12
2022-08-18T00:56:23.878Z,26.10
2022-08-18T00:57:23.897Z,26.13
2022-08-18T00:58:23.884Z,25.99
2022-08-18T00:59:23.898Z,26.13
2022-08-18T01:00:23.903Z,26.13
2022-08-18T01:01:23.955Z,26.13
2022-08-18T01:02:23.917Z,26.13
2022-08-18T01:03:25.236Z,26.18
2022-08-18T01:04:23.930Z,26.05
2022-08-18T01:05:23.940Z,26.01
2022-08-18T01:06:23.954Z,26.01
2022-08-18T01:07:23.954Z,26.02
2022-08-18T01:08:29.223Z,26.10
2022-08-18T01:09:23.970Z,25.98
2022-08-18T01:10:23.978Z,26.06
2022-08-18T01:11:23.970Z,26.05
2022-08-18T01:12:43.873Z,25.97
2022-08-18T01:13:24.017Z,25.94
2022-08-18T01:14:24.010Z,25.91
2022-08-18T01:15:29.014Z,25.92
2022-08-18T01:16:24.030Z,25.88
2022-08-18T01:17:24.024Z,25.90
2022-08-18T01:18:24.040Z,25.90
2022-08-18T01:19:24.037Z,25.88
2022-08-18T01:20:24.053Z,25.80
2022-08-18T01:21:24.062Z,25.82
2022-08-18T01:22:24.073Z,25.80
2022-08-18T01:23:24.071Z,25.82
2022-08-18T01:24:24.093Z,25.82
2022-08-18T01:25:26.240Z,25.80
2022-08-18T01:26:24.091Z,25.87
2022-08-18T01:27:24.091Z,25.88
2022-08-18T01:28:24.106Z,25.76
2022-08-18T01:29:24.116Z,25.80
2022-08-18T01:30:24.133Z,25.80
2022-08-18T01:31:24.122Z,25.82
2022-08-18T01:32:24.129Z,25.82
2022-08-18T01:33:26.714Z,25.83
2022-08-18T01:34:24.138Z,25.79
2022-08-18T01:35:24.163Z,25.76
2022-08-18T01:36:24.154Z,25.79
2022-08-18T01:37:24.170Z,25.75
2022-08-18T01:38:24.165Z,25.76
2022-08-18T01:41:22.453Z,25.76
2022-08-18T01:41:23.492Z,25.73
2022-08-18T01:41:30.122Z,25.67
2022-08-18T01:42:24.208Z,25.67
2022-08-18T01:43:24.208Z,25.64
2022-08-18T01:44:24.215Z,25.64
2022-08-18T01:45:24.226Z,25.65
2022-08-18T01:48:10.958Z,25.64
2022-08-18T01:48:55.812Z,25.67
2022-08-18T01:49:55.803Z,25.65
2022-08-18T01:50:55.814Z,25.61
2022-08-18T01:51:55.821Z,25.61
2022-08-18T01:52:55.827Z,25.62
2022-08-18T01:53:55.849Z,25.60
2022-08-18T01:54:55.857Z,25.50
2022-08-18T01:55:55.907Z,25.55
2022-08-18T01:56:55.851Z,25.57
2022-08-18T01:57:55.874Z,25.57
2022-08-18T01:58:55.865Z,25.50
2022-08-18T01:59:55.897Z,25.57
2022-08-18T02:00:55.888Z,25.58
2022-08-18T02:01:55.957Z,25.55
2022-08-18T02:03:01.683Z,25.58
2022-08-18T02:04:06.187Z,25.42
2022-08-18T02:04:55.923Z,25.43
2022-08-18T02:05:55.926Z,25.50
2022-08-18T02:06:55.937Z,25.50
2022-08-18T02:07:55.936Z,25.36
2022-08-18T02:08:55.951Z,25.46
2022-08-18T02:09:55.941Z,25.46
2022-08-18T02:10:55.957Z,25.42
2022-08-18T02:11:56.209Z,25.35
2022-08-18T02:12:55.979Z,25.40
2022-08-18T02:13:55.992Z,25.35
2022-08-18T02:14:55.989Z,25.43
2022-08-18T02:15:55.978Z,25.39
2022-08-18T02:16:59.400Z,25.33
2022-08-18T02:17:56.006Z,25.38
2022-08-18T02:18:56.008Z,25.35
2022-08-18T02:19:56.007Z,25.35
2022-08-18T02:20:56.017Z,25.27
2022-08-18T02:21:56.024Z,25.43
2022-08-18T02:24:27.610Z,25.33
2022-08-18T02:25:27.612Z,25.28
2022-08-18T02:26:27.614Z,25.24
2022-08-18T02:27:29.285Z,25.20
2022-08-18T02:28:30.702Z,25.20
2022-08-18T02:29:27.644Z,25.21
2022-08-18T02:30:27.633Z,25.20
2022-08-18T02:32:59.332Z,25.14
2022-08-18T02:33:59.269Z,25.13
2022-08-18T02:34:59.249Z,25.09
2022-08-18T02:40:34.351Z,25.08
2022-08-18T02:45:50.057Z,25.00
2022-08-18T02:46:37.400Z,24.98
2022-08-18T02:47:37.434Z,24.93
2022-08-18T02:48:37.417Z,24.91
2022-08-18T02:49:37.429Z,24.96
2022-08-18T02:50:37.438Z,24.98
2022-08-18T02:51:37.449Z,24.95
2022-08-18T02:52:37.446Z,24.95
2022-08-18T02:53:37.462Z,24.93
2022-08-18T02:54:37.471Z,24.84
2022-08-18T02:55:37.476Z,24.77
2022-08-18T02:56:41.102Z,24.88
2022-08-18T02:57:37.505Z,24.85
2022-08-18T02:58:37.489Z,24.83
2022-08-18T02:59:37.501Z,24.81
2022-08-18T03:00:37.503Z,24.68
2022-08-18T03:01:37.558Z,24.69
2022-08-18T03:02:37.523Z,24.73
2022-08-18T03:03:37.536Z,24.68
2022-08-18T03:04:37.520Z,24.62
2022-08-18T03:05:37.550Z,24.55
2022-08-18T03:06:37.542Z,24.57
2022-08-18T03:07:37.542Z,24.64
2022-08-18T03:08:37.571Z,24.61
2022-08-18T03:09:37.561Z,24.60
2022-08-18T03:10:37.572Z,24.53
2022-08-18T03:11:37.581Z,24.61
2022-08-18T03:12:37.581Z,24.50
2022-08-18T03:13:37.600Z,24.57
2022-08-18T03:14:37.607Z,24.53
2022-08-18T03:15:37.593Z,24.53
2022-08-18T03:16:37.612Z,24.46
2022-08-18T03:17:37.632Z,24.52
2022-08-18T03:18:37.606Z,24.52
2022-08-18T03:21:16.401Z,24.46
2022-08-18T03:22:18.742Z,24.42
2022-08-18T03:23:10.053Z,24.43
2022-08-18T03:24:10.745Z,24.43
2022-08-18T03:25:09.251Z,24.31
2022-08-18T03:26:09.256Z,24.34
2022-08-18T03:27:09.248Z,24.22
2022-08-18T03:28:09.282Z,24.30
2022-08-18T03:29:09.265Z,24.08
2022-08-18T03:30:11.346Z,24.09
2022-08-18T03:31:09.292Z,24.10
2022-08-18T03:32:09.279Z,24.02
2022-08-18T03:33:09.285Z,24.02
2022-08-18T03:34:09.294Z,24.13
2022-08-18T03:36:40.891Z,24.12
2022-08-18T03:37:40.900Z,23.95
2022-08-18T03:38:40.882Z,23.97
2022-08-18T03:43:23.677Z,23.95
2022-08-18T03:43:51.271Z,23.98
2022-08-18T03:44:44.242Z,23.94
2022-08-18T03:45:44.257Z,23.93
2022-08-18T03:46:44.264Z,24.05
2022-08-18T03:47:44.281Z,24.08
2022-08-18T03:48:44.272Z,24.02
2022-08-18T03:49:44.272Z,24.00
2022-08-18T03:50:44.279Z,24.02
2022-08-18T03:51:44.289Z,24.03
2022-08-18T03:52:44.297Z,23.95
2022-08-18T03:53:44.308Z,23.98
2022-08-18T03:54:44.323Z,23.94
2022-08-18T03:55:44.323Z,23.90
2022-08-18T03:56:44.312Z,23.88
2022-08-18T03:57:44.437Z,23.85
2022-08-18T03:58:44.338Z,23.85
2022-08-18T03:59:44.340Z,23.88
2022-08-18T04:00:44.341Z,23.83
2022-08-18T04:01:44.433Z,23.90
2022-08-18T04:02:44.360Z,23.84
2022-08-18T04:03:44.362Z,23.85
2022-08-18T04:04:44.393Z,23.83
2022-08-18T04:05:44.367Z,23.72
2022-08-18T04:06:44.388Z,23.73
2022-08-18T04:07:44.495Z,23.66
2022-08-18T04:08:44.386Z,23.58
2022-08-18T04:09:44.413Z,23.63
2022-08-18T04:10:44.421Z,23.51
2022-08-18T04:11:44.472Z,23.51
2022-08-18T04:12:44.407Z,23.51
2022-08-18T04:13:44.415Z,23.54
2022-08-18T04:14:44.433Z,23.53
2022-08-18T04:15:44.450Z,23.48
2022-08-18T04:16:44.454Z,23.47
2022-08-18T04:17:56.246Z,23.48
2022-08-18T04:18:44.459Z,23.47
2022-08-18T04:19:44.469Z,23.54
2022-08-18T04:20:59.000Z,23.61
2022-08-18T04:21:44.492Z,23.53
2022-08-18T04:22:44.468Z,23.58
2022-08-18T04:23:44.534Z,23.58
2022-08-18T04:24:44.611Z,23.60
2022-08-18T04:25:44.499Z,23.61
2022-08-18T04:26:44.516Z,23.54
2022-08-18T04:27:44.496Z,23.53
2022-08-18T04:28:44.514Z,23.53
2022-08-18T04:29:44.534Z,23.48
2022-08-18T04:30:44.524Z,23.50
2022-08-18T04:31:44.531Z,23.51
2022-08-18T04:32:44.539Z,23.48
2022-08-18T04:33:44.560Z,23.50
2022-08-18T04:34:44.579Z,23.47
2022-08-18T04:35:44.563Z,23.46
2022-08-18T04:36:44.567Z,23.46
2022-08-18T04:37:44.564Z,23.46
2022-08-18T04:38:44.561Z,23.55
2022-08-18T04:39:44.723Z,23.54
2022-08-18T04:40:44.573Z,23.50
2022-08-18T04:41:44.606Z,23.50
2022-08-18T04:42:44.611Z,23.60
2022-08-18T04:43:44.602Z,23.58
2022-08-18T04:44:44.617Z,23.58
2022-08-18T04:45:44.604Z,23.54
2022-08-18T04:46:44.644Z,23.57
2022-08-18T04:47:45.397Z,23.60
2022-08-18T04:48:44.633Z,23.60
2022-08-18T04:49:44.650Z,23.63
2022-08-18T04:50:44.641Z,23.61
2022-08-18T04:52:38.362Z,23.63
2022-08-18T04:52:44.665Z,23.66
2022-08-18T04:53:44.669Z,23.68
2022-08-18T04:54:44.668Z,23.66
2022-08-18T04:55:44.676Z,23.75
2022-08-18T04:56:44.666Z,23.69
2022-08-18T04:57:44.694Z,23.66
2022-08-18T04:58:44.692Z,23.68
2022-08-18T04:59:44.685Z,23.68
2022-08-18T05:00:44.711Z,23.69
2022-08-18T05:01:44.741Z,23.63
2022-08-18T05:02:44.717Z,23.68
2022-08-18T05:03:45.424Z,23.73
2022-08-18T05:04:44.727Z,23.66
2022-08-18T05:05:44.851Z,23.73
2022-08-18T05:06:44.748Z,23.73
2022-08-18T05:07:44.895Z,23.78
2022-08-18T05:08:44.751Z,23.76
2022-08-18T05:09:44.772Z,23.75
2022-08-18T05:10:44.773Z,23.85
2022-08-18T05:11:44.778Z,23.90
2022-08-18T05:12:44.771Z,23.85
2022-08-18T05:13:44.770Z,23.85
2022-08-18T05:14:44.787Z,23.90
2022-08-18T05:16:09.062Z,23.97
2022-08-18T05:16:48.866Z,23.93
2022-08-18T05:17:44.883Z,23.94
2022-08-18T05:18:44.794Z,24.00
2022-08-18T05:19:44.837Z,24.00
2022-08-18T05:20:44.818Z,24.02
2022-08-18T05:21:44.837Z,24.02
2022-08-18T05:22:44.822Z,24.02
2022-08-18T05:23:44.838Z,23.98
2022-08-18T05:24:44.867Z,24.09
2022-08-18T05:25:44.843Z,24.00
2022-08-18T05:26:44.843Z,24.10
2022-08-18T05:27:45.069Z,24.06
2022-08-18T05:28:44.855Z,24.12
2022-08-18T05:29:46.146Z,24.12
2022-08-18T05:30:44.874Z,24.09
2022-08-18T05:31:44.903Z,24.06
2022-08-18T05:32:47.859Z,24.08
2022-08-18T05:33:44.904Z,24.06
2022-08-18T05:34:44.889Z,24.09
2022-08-18T05:35:44.904Z,24.02
2022-08-18T05:36:44.908Z,24.02
2022-08-18T05:37:44.918Z,24.12
2022-08-18T05:38:44.923Z,24.08
2022-08-18T05:39:44.967Z,24.10
2022-08-18T05:40:44.927Z,24.06
2022-08-18T05:41:44.939Z,24.13
2022-08-18T05:42:44.965Z,24.13
2022-08-18T05:43:51.715Z,24.25
2022-08-18T05:44:44.958Z,24.16
2022-08-18T05:45:44.966Z,24.21
2022-08-18T05:46:44.973Z,24.28
2022-08-18T05:47:44.980Z,24.27
2022-08-18T05:48:44.994Z,24.31
2022-08-18T05:49:44.990Z,24.32
2022-08-18T05:50:45.002Z,24.40
2022-08-18T05:51:45.004Z,24.30
2022-08-18T05:52:45.004Z,24.37
2022-08-18T05:53:45.019Z,24.32
2022-08-18T05:54:45.035Z,24.31
2022-08-18T05:55:47.881Z,24.35
2022-08-18T05:56:45.047Z,24.30
2022-08-18T05:57:45.072Z,24.34
2022-08-18T05:58:45.056Z,24.37
2022-08-18T05:59:45.048Z,24.40
2022-08-18T06:00:45.054Z,24.45
2022-08-18T06:01:45.065Z,24.46
2022-08-18T06:02:45.168Z,24.58
2022-08-18T06:03:46.762Z,24.58
2022-08-18T06:04:45.072Z,24.67
2022-08-18T06:05:45.081Z,24.60
2022-08-18T06:06:47.640Z,24.68
2022-08-18T06:07:45.146Z,24.68
2022-08-18T06:08:45.116Z,24.83
2022-08-18T06:09:45.145Z,24.83
2022-08-18T06:10:45.108Z,24.83
2022-08-18T06:11:45.175Z,24.88
2022-08-18T06:12:47.085Z,24.90
2022-08-18T06:13:45.144Z,24.96
2022-08-18T06:14:45.147Z,25.08
2022-08-18T06:15:45.154Z,25.05
2022-08-18T06:16:45.320Z,25.09
2022-08-18T06:17:49.560Z,25.15
2022-08-18T06:18:45.172Z,25.21
2022-08-18T06:19:45.168Z,25.27
2022-08-18T06:20:45.189Z,25.27
2022-08-18T06:21:45.193Z,25.27
2022-08-18T06:22:53.514Z,25.21
2022-08-18T06:23:45.222Z,25.33
2022-08-18T06:24:45.200Z,25.32
2022-08-18T06:25:45.209Z,25.40
2022-08-18T06:26:45.233Z,25.38
2022-08-18T06:27:45.327Z,25.42
2022-08-18T06:28:45.259Z,25.46
2022-08-18T06:29:45.233Z,25.52
2022-08-18T06:30:52.814Z,25.57
2022-08-18T06:31:45.285Z,25.58
2022-08-18T06:32:45.274Z,25.57
2022-08-18T06:33:45.968Z,25.64
2022-08-18T06:34:45.285Z,25.61
2022-08-18T06:35:45.296Z,25.76
2022-08-18T06:36:45.298Z,25.72
2022-08-18T06:37:45.319Z,25.77
2022-08-18T06:38:45.973Z,25.72
2022-08-18T06:39:45.338Z,25.76
2022-08-18T06:40:45.310Z,25.76
2022-08-18T06:41:45.342Z,25.75
2022-08-18T06:42:45.313Z,25.88
2022-08-18T06:43:45.322Z,25.91
2022-08-18T06:44:45.326Z,25.92
2022-08-18T06:45:45.365Z,25.88
2022-08-18T06:46:45.352Z,25.92
2022-08-18T06:47:45.387Z,25.90
2022-08-18T06:48:45.389Z,25.94
2022-08-18T06:49:45.362Z,25.94
2022-08-18T06:50:45.382Z,26.01
2022-08-18T06:51:45.374Z,25.99
2022-08-18T06:52:45.387Z,26.05
2022-08-18T06:53:45.433Z,26.13
2022-08-18T06:54:50.399Z,26.13
2022-08-18T06:55:45.401Z,26.18
2022-08-18T06:56:45.440Z,26.15
2022-08-18T06:57:45.513Z,26.23
2022-08-18T06:58:47.067Z,26.21
2022-08-18T06:59:45.429Z,26.26
2022-08-18T07:00:45.503Z,26.35
2022-08-18T07:01:45.480Z,26.39
2022-08-18T07:02:45.488Z,26.40
2022-08-18T07:03:45.466Z,26.44
2022-08-18T07:04:45.482Z,26.54
2022-08-18T07:05:45.478Z,26.69
2022-08-18T07:06:45.487Z,26.77
2022-08-18T07:07:45.487Z,26.75
2022-08-18T07:08:45.505Z,26.77
2022-08-18T07:09:45.507Z,26.81
2022-08-18T07:10:45.521Z,26.88
2022-08-18T07:11:45.518Z,26.92
2022-08-18T07:12:45.528Z,26.89
2022-08-18T07:13:45.569Z,27.00
2022-08-18T07:14:45.571Z,26.99
2022-08-18T07:15:45.579Z,27.03
2022-08-18T07:17:00.692Z,26.94
2022-08-18T07:17:45.568Z,27.09
2022-08-18T07:18:45.594Z,27.12
2022-08-18T07:19:53.534Z,27.14
2022-08-18T07:20:53.574Z,27.12
2022-08-18T07:21:52.639Z,27.17
2022-08-18T07:22:45.602Z,27.10
2022-08-18T07:23:57.550Z,27.13
2022-08-18T07:24:45.600Z,27.18
2022-08-18T07:25:53.654Z,27.10
2022-08-18T07:26:45.667Z,27.14
2022-08-18T07:27:53.441Z,27.12
2022-08-18T07:28:53.203Z,27.04
2022-08-18T07:29:45.669Z,26.91
2022-08-18T07:31:15.620Z,26.94
2022-08-18T07:31:45.662Z,26.89
2022-08-18T07:32:45.698Z,27.00
2022-08-18T07:33:45.706Z,27.00
2022-08-18T07:34:53.564Z,26.94
2022-08-18T07:35:53.354Z,26.92
2022-08-18T07:36:45.700Z,27.00
2022-08-18T07:37:45.816Z,27.02
2022-08-18T07:38:53.347Z,27.00
2022-08-18T07:39:47.373Z,26.99
2022-08-18T07:40:53.397Z,26.94
2022-08-18T07:41:53.446Z,26.99
2022-08-18T07:43:00.427Z,26.97
2022-08-18T07:43:52.786Z,26.99
2022-08-18T07:44:52.781Z,27.00
2022-08-18T07:45:45.762Z,27.03
2022-08-18T07:46:53.534Z,26.99
2022-08-18T07:47:53.790Z,26.97
2022-08-18T07:48:45.774Z,26.97
2022-08-18T07:49:59.952Z,27.06
2022-08-18T07:50:58.311Z,27.03
2022-08-18T07:51:53.595Z,27.04
2022-08-18T07:52:47.429Z,27.00
2022-08-18T07:53:54.842Z,27.12
2022-08-18T07:54:49.485Z,27.13
2022-08-18T07:55:45.815Z,27.13
2022-08-18T07:56:45.838Z,27.04
2022-08-18T07:57:45.937Z,27.09
2022-08-18T07:58:45.839Z,27.09
2022-08-18T07:59:45.852Z,27.09
2022-08-18T08:00:58.907Z,27.10
2022-08-18T08:01:45.906Z,27.12
2022-08-18T08:02:45.870Z,27.10
2022-08-18T08:03:45.876Z,27.10
2022-08-18T08:04:45.884Z,27.06
2022-08-18T08:05:45.890Z,27.09
2022-08-18T08:07:20.299Z,27.07
2022-08-18T08:07:45.905Z,27.10
2022-08-18T08:08:45.910Z,27.06
2022-08-18T08:09:49.752Z,27.14
2022-08-18T08:10:45.930Z,27.14
2022-08-18T08:11:52.982Z,27.14
2022-08-18T08:12:45.945Z,27.14
2022-08-18T08:13:55.655Z,27.27
2022-08-18T08:14:45.955Z,27.27
2022-08-18T08:15:45.967Z,27.32
2022-08-18T08:16:45.972Z,27.27
2022-08-18T08:17:46.035Z,27.40
2022-08-18T08:18:45.978Z,27.21
2022-08-18T08:20:02.066Z,27.28
2022-08-18T08:20:45.989Z,27.41
2022-08-18T08:21:52.826Z,27.40
2022-08-18T08:22:46.015Z,27.40
2022-08-18T08:23:46.022Z,27.43
2022-08-18T08:24:46.176Z,27.47
2022-08-18T08:25:47.416Z,27.46
2022-08-18T08:26:46.134Z,27.51
2022-08-18T08:27:46.109Z,27.60
2022-08-18T08:28:46.054Z,27.62
2022-08-18T08:29:46.070Z,27.70
2022-08-18T08:30:46.080Z,27.67
2022-08-18T08:31:46.082Z,27.74
2022-08-18T08:32:46.095Z,27.75
2022-08-18T08:33:46.126Z,27.79
2022-08-18T08:34:46.102Z,27.84
2022-08-18T08:35:49.411Z,27.84
2022-08-18T08:36:46.109Z,27.90
2022-08-18T08:37:46.117Z,27.93
2022-08-18T08:38:46.139Z,27.93
2022-08-18T08:39:46.184Z,27.94
2022-08-18T08:40:46.149Z,27.92
2022-08-18T08:41:46.143Z,27.93
2022-08-18T08:42:46.166Z,27.92
2022-08-18T08:43:46.160Z,27.96
2022-08-18T08:44:58.739Z,28.00
2022-08-18T08:45:46.187Z,28.22
2022-08-18T08:46:46.210Z,28.22
2022-08-18T08:47:46.265Z,28.27
2022-08-18T08:48:46.199Z,28.34
2022-08-18T08:49:46.257Z,28.29
2022-08-18T08:50:46.214Z,28.36
2022-08-18T08:51:46.233Z,28.36
2022-08-18T08:52:46.251Z,28.34
2022-08-18T08:53:46.275Z,28.37
2022-08-18T08:54:46.275Z,28.46
2022-08-18T08:55:46.254Z,28.55
2022-08-18T08:56:46.259Z,28.61
2022-08-18T08:57:46.302Z,28.64
2022-08-18T08:58:46.275Z,28.59
2022-08-18T08:59:46.291Z,28.64
2022-08-18T09:00:46.317Z,28.77
2022-08-18T09:01:46.404Z,28.67
2022-08-18T09:02:48.327Z,28.83
2022-08-18T09:03:46.322Z,28.71
2022-08-18T09:04:54.766Z,28.76
2022-08-18T09:05:46.352Z,28.76
2022-08-18T09:06:46.373Z,28.85
2022-08-18T09:07:46.371Z,28.85
2022-08-18T09:08:46.384Z,28.92
2022-08-18T09:09:46.382Z,28.95
2022-08-18T09:10:46.387Z,29.04
2022-08-18T09:11:46.398Z,29.19
2022-08-18T09:12:46.497Z,29.14
2022-08-18T09:13:46.408Z,29.18
2022-08-18T09:14:46.436Z,29.19
2022-08-18T09:15:46.460Z,29.30
2022-08-18T09:16:46.460Z,29.23
2022-08-18T09:17:46.436Z,29.27
2022-08-18T09:18:46.495Z,29.37
2022-08-18T09:19:46.494Z,29.46
2022-08-18T09:20:49.242Z,29.53
2022-08-18T09:21:46.526Z,29.52
2022-08-18T09:22:46.553Z,29.61
2022-08-18T09:23:46.495Z,29.70
2022-08-18T09:24:46.522Z,29.73
2022-08-18T09:25:46.518Z,29.85
2022-08-18T09:26:46.535Z,29.86
2022-08-18T09:28:09.797Z,29.87
2022-08-18T09:28:46.540Z,29.95
2022-08-18T09:29:46.545Z,30.04
2022-08-18T09:30:47.560Z,30.15
2022-08-18T09:31:46.575Z,30.15
2022-08-18T09:32:49.354Z,30.17
2022-08-18T09:33:46.576Z,30.20
2022-08-18T09:34:46.584Z,30.23
2022-08-18T09:35:46.606Z,30.24
2022-08-18T09:36:46.610Z,30.22
2022-08-18T09:37:46.619Z,30.35
2022-08-18T09:38:46.632Z,30.20
2022-08-18T09:39:53.174Z,30.32
2022-08-18T09:41:49.022Z,30.49
2022-08-18T09:43:46.684Z,30.55
2022-08-18T09:44:46.693Z,30.55
2022-08-18T09:45:46.697Z,30.61
2022-08-18T09:46:46.702Z,30.55
2022-08-18T09:47:48.062Z,30.54
2022-08-18T09:48:46.719Z,30.60
2022-08-18T09:50:46.736Z,30.67
2022-08-18T09:51:46.785Z,30.77
2022-08-18T09:52:46.759Z,30.80
2022-08-18T09:53:46.761Z,30.80
2022-08-18T09:54:46.772Z,30.92
2022-08-18T09:55:51.981Z,30.92
2022-08-18T09:56:53.422Z,30.99
2022-08-18T09:57:46.802Z,31.09
2022-08-18T09:58:46.831Z,31.16
2022-08-18T09:59:46.837Z,31.12
2022-08-18T10:00:46.823Z,31.17
2022-08-18T10:01:52.591Z,31.16
2022-08-18T10:02:50.534Z,31.12
2022-08-18T10:03:46.874Z,31.23
2022-08-18T10:04:46.889Z,31.26
2022-08-18T10:05:46.878Z,31.31
2022-08-18T10:06:48.699Z,31.17
2022-08-18T10:07:46.925Z,31.21
2022-08-18T10:08:46.907Z,31.06
2022-08-18T10:09:46.914Z,31.10
2022-08-18T10:11:02.184Z,30.98
2022-08-18T10:11:46.938Z,30.98
2022-08-18T10:12:46.961Z,30.94
2022-08-18T10:13:49.511Z,30.92
2022-08-18T10:14:46.974Z,30.95
2022-08-18T10:15:47.195Z,31.19
2022-08-18T10:17:13.297Z,31.28
2022-08-18T10:17:50.217Z,31.32
2022-08-18T10:18:47.012Z,31.39
2022-08-18T10:19:47.007Z,31.56
2022-08-18T10:20:47.047Z,31.63
2022-08-18T10:21:47.035Z,31.78
2022-08-18T10:22:47.100Z,31.88
2022-08-18T10:23:48.126Z,32.07
2022-08-18T10:24:47.065Z,32.18
2022-08-18T10:25:47.412Z,32.22
2022-08-18T10:26:54.541Z,32.38
2022-08-18T10:27:47.890Z,32.50
2022-08-18T10:28:47.122Z,32.57
2022-08-18T10:29:47.123Z,32.69
2022-08-18T10:31:47.203Z,32.85
2022-08-18T10:32:52.093Z,33.00
2022-08-18T10:33:47.231Z,33.12
2022-08-18T10:34:52.578Z,33.22
2022-08-18T10:35:47.201Z,33.38
2022-08-18T10:36:47.236Z,33.37
2022-08-18T10:37:47.311Z,33.51
2022-08-18T10:38:49.182Z,33.59
2022-08-18T10:39:47.307Z,33.76
2022-08-18T10:40:47.286Z,34.00
2022-08-18T10:41:47.303Z,34.27
2022-08-18T10:42:47.726Z,34.42
2022-08-18T10:44:20.944Z,34.61
2022-08-18T10:44:47.355Z,34.82
2022-08-18T10:45:59.405Z,34.97
2022-08-18T10:46:47.373Z,35.31
2022-08-18T10:47:47.419Z,35.33
2022-08-18T10:48:50.576Z,35.60
2022-08-18T10:49:47.430Z,35.93
2022-08-18T10:50:47.452Z,35.99
2022-08-18T10:51:57.848Z,36.43
2022-08-18T10:52:51.285Z,36.59
2022-08-18T10:53:47.862Z,36.85
2022-08-18T10:54:52.148Z,37.06
2022-08-18T10:56:47.563Z,37.57
2022-08-18T10:57:47.593Z,37.72
2022-08-18T10:58:47.665Z,37.81
2022-08-18T10:59:50.545Z,37.79
2022-08-18T11:00:47.621Z,37.98
2022-08-18T11:01:47.641Z,38.13
2022-08-18T11:02:48.757Z,38.38
2022-08-18T11:03:51.603Z,38.75
2022-08-18T11:04:58.681Z,38.87
2022-08-18T11:05:47.794Z,38.90
2022-08-18T11:06:47.753Z,39.01
2022-08-18T11:07:47.770Z,39.14
2022-08-18T11:08:47.818Z,39.35
2022-08-18T11:09:57.088Z,39.36
2022-08-18T11:11:06.623Z,39.55
2022-08-18T11:11:52.554Z,39.69
2022-08-18T11:12:47.867Z,39.94
2022-08-18T11:13:47.898Z,40.26
2022-08-18T11:14:50.177Z,40.48
2022-08-18T11:15:47.931Z,40.67
2022-08-18T11:16:47.938Z,40.77
2022-08-18T11:17:47.944Z,41.06
2022-08-18T11:18:49.159Z,41.32
2022-08-18T11:19:50.645Z,41.64
2022-08-18T11:20:48.030Z,41.93
2022-08-18T11:22:48.246Z,42.16
2022-08-18T11:23:48.087Z,42.31
2022-08-18T11:24:48.095Z,42.40
2022-08-18T11:25:48.346Z,42.42
2022-08-18T11:26:52.473Z,42.57
2022-08-18T11:27:48.414Z,42.40
2022-08-18T11:28:48.155Z,42.54
2022-08-18T11:29:48.204Z,42.54
2022-08-18T11:30:48.202Z,42.62
2022-08-18T11:32:55.261Z,41.93
2022-08-18T11:33:48.251Z,42.05
2022-08-18T11:35:48.302Z,42.02
2022-08-18T11:36:50.125Z,41.44
2022-08-18T11:37:53.425Z,41.20
2022-08-18T11:38:48.359Z,40.72
2022-08-18T11:39:48.424Z,40.48
2022-08-18T11:41:50.307Z,41.01
2022-08-18T11:42:48.473Z,40.98
2022-08-18T11:43:50.710Z,40.32
2022-08-18T11:44:48.499Z,39.97
2022-08-18T11:45:48.555Z,39.72
2022-08-18T11:46:51.969Z,39.69
2022-08-18T11:47:48.575Z,39.72
2022-08-18T11:48:51.406Z,39.50
2022-08-18T11:49:48.556Z,39.88
2022-08-18T11:50:54.719Z,40.22
2022-08-18T11:51:48.613Z,40.41
2022-08-18T11:52:48.710Z,40.65
2022-08-18T11:53:53.835Z,40.98
2022-08-18T11:54:50.894Z,41.16
2022-08-18T11:55:48.666Z,40.62
2022-08-18T11:56:48.682Z,40.18
2022-08-18T11:57:49.298Z,39.67
2022-08-18T11:58:50.606Z,39.10
2022-08-18T12:00:48.871Z,38.60
2022-08-18T12:01:48.750Z,38.38
2022-08-18T12:02:48.796Z,38.03
2022-08-18T12:03:48.768Z,37.86
2022-08-18T12:04:50.448Z,37.72
2022-08-18T12:06:48.825Z,37.72
2022-08-18T12:07:57.090Z,37.72
2022-08-18T12:10:48.865Z,37.10
2022-08-18T12:11:48.903Z,36.91
2022-08-18T12:12:50.128Z,36.71
2022-08-18T12:13:48.915Z,36.46
2022-08-18T12:14:48.937Z,36.39
2022-08-18T12:15:48.970Z,36.38
2022-08-18T12:17:52.266Z,36.27
2022-08-18T12:18:48.972Z,36.22
2022-08-18T12:19:49.018Z,36.20
2022-08-18T12:20:48.999Z,36.08
2022-08-18T12:21:49.013Z,36.03
2022-08-18T12:22:49.236Z,36.12
2022-08-18T12:23:49.553Z,36.05
2022-08-18T12:24:49.081Z,36.09
2022-08-18T12:25:51.800Z,35.99
2022-08-18T12:26:49.093Z,35.80
2022-08-18T12:27:49.107Z,35.80
2022-08-18T12:28:49.112Z,35.72
2022-08-18T12:29:49.437Z,35.75
2022-08-18T12:30:49.135Z,35.68
2022-08-18T12:31:49.155Z,35.43
2022-08-18T12:32:55.775Z,35.44
2022-08-18T12:34:49.203Z,35.41
2022-08-18T12:35:49.322Z,35.38
2022-08-18T12:36:49.207Z,35.28
2022-08-18T12:38:12.847Z,35.28
2022-08-18T12:38:52.114Z,35.29
2022-08-18T12:39:49.298Z,35.23
2022-08-18T12:40:49.289Z,35.23
2022-08-18T12:41:49.273Z,35.22
2022-08-18T12:42:49.315Z,35.41
2022-08-18T12:43:58.846Z,35.29
2022-08-18T12:44:49.322Z,35.34
2022-08-18T12:45:49.353Z,35.37
2022-08-18T12:46:49.361Z,35.37
2022-08-18T12:47:49.345Z,35.36
2022-08-18T12:48:49.367Z,35.37
2022-08-18T12:49:49.387Z,35.43
2022-08-18T12:50:54.389Z,35.40
2022-08-18T12:51:50.341Z,35.37
2022-08-18T12:52:49.485Z,35.34
2022-08-18T12:53:59.463Z,35.38
2022-08-18T12:54:55.271Z,35.36
2022-08-18T12:55:49.438Z,35.37
2022-08-18T12:56:49.510Z,35.34
2022-08-18T12:58:49.518Z,35.37
2022-08-18T12:59:49.497Z,35.48
2022-08-18T13:00:49.535Z,35.56
2022-08-18T13:01:49.616Z,35.55
2022-08-18T13:02:49.580Z,35.58
2022-08-18T13:03:52.733Z,35.45
2022-08-18T13:04:49.609Z,35.45
2022-08-18T13:05:49.564Z,35.47
2022-08-18T13:06:59.876Z,35.36
2022-08-18T13:07:49.597Z,35.34
2022-08-18T13:08:50.317Z,35.22
2022-08-18T13:09:53.826Z,35.26
2022-08-18T13:10:49.634Z,35.25
2022-08-18T13:11:49.649Z,35.28
2022-08-18T13:12:49.645Z,35.43
2022-08-18T13:13:53.139Z,35.34
2022-08-18T13:14:49.676Z,35.36
2022-08-18T13:15:58.122Z,35.38
2022-08-18T13:16:54.180Z,35.29
2022-08-18T13:17:49.711Z,35.25
2022-08-18T13:18:49.728Z,35.28
2022-08-18T13:19:49.738Z,35.29
2022-08-18T13:20:49.762Z,35.36
2022-08-18T13:21:49.763Z,35.45
2022-08-18T13:22:50.600Z,35.50
2022-08-18T13:23:49.793Z,35.58
2022-08-18T13:24:49.792Z,35.70
2022-08-18T13:25:49.809Z,35.81
2022-08-18T13:26:49.827Z,35.74
2022-08-18T13:27:49.889Z,35.93